Impacts METAR Board INFO
IDs:

KLGA - New York/La Guardia, NY, US

Updated at: 0419 UTC 21 Jan 2018
Potential Impact None Slight Moderate High
Time20/16Z 20/17Z 20/18Z 20/19Z 20/20Z 20/21Z 20/22Z 20/23Z 21/00Z 21/01Z 21/02Z 21/03Z 21/04Z
VIS10 10 10 10 10 10 10 10 10 10 10 10 10
CIG250 250 250 250 250 250 250 250 250 250 -- -- --
CoverBKNBKNBKNBKNBKNBKNBKNBKNBKNBKNSCTSCTSCT
FltCatVFRVFRVFRVFRVFRVFRVFRVFRVFRVFRVFRVFRVFR
WX--------------------------
WDir250270260270270250270260270270290270250
WSpd9 12 14 13 18 17 13 11 12 11 12 7 4
WGst15 -- 25 22 25 22 -- 20 -- -- 19 -- --
Raw hourly METARs
KLGA 201551Z 25009G15KT 10SM BKN250 09/M05 A2989 RMK AO2 SLP120 T00891050
KLGA 201651Z 27012KT 10SM BKN250 11/M04 A2986 RMK AO2 PK WND 24027/1602 SLP112 T01061044
KLGA 201751Z 26014G25KT 10SM BKN250 11/M04 A2984 RMK AO2 SLP105 T01111044 10111 20044 58021
KLGA 201851Z 27013G22KT 10SM FEW200 BKN250 12/M04 A2985 RMK AO2 SLP107 T01221044
KLGA 201951Z 27018G25KT 10SM FEW200 BKN250 11/M04 A2986 RMK AO2 PK WND 25026/1914 SLP113 T01111039
KLGA 202051Z 25017G22KT 10SM FEW190 BKN250 10/M04 A2989 RMK AO2 PK WND 27026/2005 SLP122 T01001039 53016
KLGA 202151Z 27013KT 10SM FEW190 BKN250 10/M03 A2992 RMK AO2 SLP130 T01001033
KLGA 202251Z 26011G20KT 10SM FEW190 BKN250 09/M03 A2994 RMK AO2 SLP140 T00941033
KLGA 202351Z 27012KT 10SM FEW190 BKN250 09/M03 A2997 RMK AO2 SLP148 T00891033 10122 20089 51026
KLGA 210051Z 27011KT 10SM FEW200 BKN250 09/M03 A3000 RMK AO2 SLP157 T00891028
KLGA 210151Z 29012G19KT 10SM SCT250 08/M03 A3000 RMK AO2 SLP160 T00831028
KLGA 210251Z 27007KT 10SM SCT250 08/M03 A3001 RMK AO2 SLP163 T00831028 51015
KLGA 210351Z 25004KT 10SM SCT250 08/M03 A3003 RMK AO2 SLP167 T00781028